sensor_id;sensor_type;location;lat;lon;timestamp;P1;durP1;ratioP1;P2;durP2;ratioP2
75209;SDS011;63796;53.136;14.882;2023-09-30T00:01:28;2.50;;;0.80;;
75209;SDS011;63796;53.136;14.882;2023-09-30T00:03:56;5.40;;;1.50;;
75209;SDS011;63796;53.136;14.882;2023-09-30T00:06:24;3.30;;;0.70;;
75209;SDS011;63796;53.136;14.882;2023-09-30T00:08:51;1.40;;;0.40;;
75209;SDS011;63796;53.136;14.882;2023-09-30T00:11:19;3.30;;;0.50;;
75209;SDS011;63796;53.136;14.882;2023-09-30T00:13:46;1.60;;;0.40;;
75209;SDS011;63796;53.136;14.882;2023-09-30T00:16:16;2.00;;;0.20;;
75209;SDS011;63796;53.136;14.882;2023-09-30T00:18:46;1.70;;;0.20;;
75209;SDS011;63796;53.136;14.882;2023-09-30T00:21:14;3.10;;;0.30;;
75209;SDS011;63796;53.136;14.882;2023-09-30T00:23:42;1.30;;;0.30;;
75209;SDS011;63796;53.136;14.882;2023-09-30T00:26:09;1.20;;;0.20;;
75209;SDS011;63796;53.136;14.882;2023-09-30T00:28:37;1.60;;;0.20;;
75209;SDS011;63796;53.136;14.882;2023-09-30T00:31:08;1.30;;;0.30;;
75209;SDS011;63796;53.136;14.882;2023-09-30T00:33:38;0.60;;;0.10;;
75209;SDS011;63796;53.136;14.882;2023-09-30T00:36:09;0.80;;;0.20;;
75209;SDS011;63796;53.136;14.882;2023-09-30T00:38:38;1.40;;;0.40;;
75209;SDS011;63796;53.136;14.882;2023-09-30T00:41:06;3.50;;;0.70;;
75209;SDS011;63796;53.136;14.882;2023-09-30T00:43:34;1.60;;;0.50;;
75209;SDS011;63796;53.136;14.882;2023-09-30T00:46:05;1.90;;;0.30;;
75209;SDS011;63796;53.136;14.882;2023-09-30T00:48:34;3.00;;;0.60;;
75209;SDS011;63796;53.136;14.882;2023-09-30T00:51:02;4.80;;;1.00;;
75209;SDS011;63796;53.136;14.882;2023-09-30T00:53:30;3.60;;;0.40;;
75209;SDS011;63796;53.136;14.882;2023-09-30T00:55:58;2.50;;;0.30;;
75209;SDS011;63796;53.136;14.882;2023-09-30T00:58:27;3.50;;;0.80;;
75209;SDS011;63796;53.136;14.882;2023-09-30T01:00:56;2.10;;;0.40;;
75209;SDS011;63796;53.136;14.882;2023-09-30T01:03:25;3.30;;;0.50;;
75209;SDS011;63796;53.136;14.882;2023-09-30T01:05:53;3.90;;;0.60;;
75209;SDS011;63796;53.136;14.882;2023-09-30T01:08:21;4.20;;;0.70;;
75209;SDS011;63796;53.136;14.882;2023-09-30T01:10:49;5.80;;;0.60;;
75209;SDS011;63796;53.136;14.882;2023-09-30T01:13:16;7.20;;;0.80;;
75209;SDS011;63796;53.136;14.882;2023-09-30T01:15:43;3.90;;;0.80;;
75209;SDS011;63796;53.136;14.882;2023-09-30T01:18:11;5.60;;;0.60;;
75209;SDS011;63796;53.136;14.882;2023-09-30T01:20:39;5.10;;;1.20;;
75209;SDS011;63796;53.136;14.882;2023-09-30T01:23:07;6.40;;;0.80;;
75209;SDS011;63796;53.136;14.882;2023-09-30T01:25:34;6.30;;;0.90;;
75209;SDS011;63796;53.136;14.882;2023-09-30T01:28:02;2.60;;;1.00;;
75209;SDS011;63796;53.136;14.882;2023-09-30T01:30:34;6.40;;;1.40;;
75209;SDS011;63796;53.136;14.882;2023-09-30T01:33:02;8.60;;;1.20;;
75209;SDS011;63796;53.136;14.882;2023-09-30T01:35:30;4.40;;;1.00;;
75209;SDS011;63796;53.136;14.882;2023-09-30T01:37:57;15.00;;;2.20;;
75209;SDS011;63796;53.136;14.882;2023-09-30T01:40:25;8.90;;;0.90;;
75209;SDS011;63796;53.136;14.882;2023-09-30T01:42:52;7.90;;;1.70;;
75209;SDS011;63796;53.136;14.882;2023-09-30T01:45:19;4.00;;;1.30;;
75209;SDS011;63796;53.136;14.882;2023-09-30T01:47:47;6.00;;;1.10;;
75209;SDS011;63796;53.136;14.882;2023-09-30T01:50:15;10.90;;;1.50;;
75209;SDS011;63796;53.136;14.882;2023-09-30T01:52:42;11.60;;;2.10;;
75209;SDS011;63796;53.136;14.882;2023-09-30T01:55:09;9.60;;;2.10;;
75209;SDS011;63796;53.136;14.882;2023-09-30T01:57:37;4.60;;;1.50;;
75209;SDS011;63796;53.136;14.882;2023-09-30T02:00:05;9.50;;;1.80;;
75209;SDS011;63796;53.136;14.882;2023-09-30T02:02:36;9.40;;;1.40;;
75209;SDS011;63796;53.136;14.882;2023-09-30T02:05:04;8.80;;;2.20;;
75209;SDS011;63796;53.136;14.882;2023-09-30T02:07:35;8.90;;;2.00;;
75209;SDS011;63796;53.136;14.882;2023-09-30T02:10:02;8.90;;;2.10;;
75209;SDS011;63796;53.136;14.882;2023-09-30T02:12:30;9.90;;;2.20;;
75209;SDS011;63796;53.136;14.882;2023-09-30T02:14:58;10.30;;;1.60;;
75209;SDS011;63796;53.136;14.882;2023-09-30T02:17:25;11.70;;;2.40;;
75209;SDS011;63796;53.136;14.882;2023-09-30T02:19:53;15.70;;;2.60;;
75209;SDS011;63796;53.136;14.882;2023-09-30T02:22:22;11.70;;;2.30;;
75209;SDS011;63796;53.136;14.882;2023-09-30T02:24:50;11.10;;;2.10;;
75209;SDS011;63796;53.136;14.882;2023-09-30T02:27:18;11.50;;;2.10;;
75209;SDS011;63796;53.136;14.882;2023-09-30T02:29:45;12.10;;;2.30;;
75209;SDS011;63796;53.136;14.882;2023-09-30T02:32:13;8.90;;;1.70;;
75209;SDS011;63796;53.136;14.882;2023-09-30T02:34:41;10.40;;;2.10;;
75209;SDS011;63796;53.136;14.882;2023-09-30T02:37:11;10.80;;;2.10;;
75209;SDS011;63796;53.136;14.882;2023-09-30T02:39:39;8.90;;;2.10;;
75209;SDS011;63796;53.136;14.882;2023-09-30T02:42:06;8.50;;;2.10;;
75209;SDS011;63796;53.136;14.882;2023-09-30T02:44:34;10.40;;;2.30;;
75209;SDS011;63796;53.136;14.882;2023-09-30T02:47:01;10.30;;;2.00;;
75209;SDS011;63796;53.136;14.882;2023-09-30T02:49:32;8.20;;;2.00;;
75209;SDS011;63796;53.136;14.882;2023-09-30T02:52:00;12.70;;;1.80;;
75209;SDS011;63796;53.136;14.882;2023-09-30T02:54:30;15.40;;;2.00;;
75209;SDS011;63796;53.136;14.882;2023-09-30T02:56:58;12.70;;;2.00;;
75209;SDS011;63796;53.136;14.882;2023-09-30T02:59:25;12.50;;;2.00;;
75209;SDS011;63796;53.136;14.882;2023-09-30T03:01:54;7.30;;;1.80;;
75209;SDS011;63796;53.136;14.882;2023-09-30T03:04:23;9.00;;;2.20;;
75209;SDS011;63796;53.136;14.882;2023-09-30T03:06:53;16.70;;;2.10;;
75209;SDS011;63796;53.136;14.882;2023-09-30T03:09:23;12.20;;;1.70;;
75209;SDS011;63796;53.136;14.882;2023-09-30T03:11:51;14.60;;;2.00;;
75209;SDS011;63796;53.136;14.882;2023-09-30T03:14:18;11.20;;;1.50;;
75209;SDS011;63796;53.136;14.882;2023-09-30T03:16:46;11.50;;;2.00;;
75209;SDS011;63796;53.136;14.882;2023-09-30T03:19:14;9.70;;;2.30;;
75209;SDS011;63796;53.136;14.882;2023-09-30T03:21:43;14.90;;;2.30;;
75209;SDS011;63796;53.136;14.882;2023-09-30T03:24:11;9.10;;;1.90;;
75209;SDS011;63796;53.136;14.882;2023-09-30T03:26:40;10.80;;;2.00;;
75209;SDS011;63796;53.136;14.882;2023-09-30T03:29:09;7.70;;;1.60;;
75209;SDS011;63796;53.136;14.882;2023-09-30T03:31:36;8.30;;;1.70;;
75209;SDS011;63796;53.136;14.882;2023-09-30T03:34:05;7.20;;;1.80;;
75209;SDS011;63796;53.136;14.882;2023-09-30T03:36:32;8.40;;;1.80;;
75209;SDS011;63796;53.136;14.882;2023-09-30T03:39:00;10.40;;;1.60;;
75209;SDS011;63796;53.136;14.882;2023-09-30T03:41:34;6.50;;;1.30;;
75209;SDS011;63796;53.136;14.882;2023-09-30T03:44:05;9.70;;;1.70;;
75209;SDS011;63796;53.136;14.882;2023-09-30T03:46:32;18.10;;;2.30;;
75209;SDS011;63796;53.136;14.882;2023-09-30T03:49:00;18.10;;;2.60;;
75209;SDS011;63796;53.136;14.882;2023-09-30T03:51:27;8.20;;;1.70;;
75209;SDS011;63796;53.136;14.882;2023-09-30T03:53:55;12.90;;;2.30;;
75209;SDS011;63796;53.136;14.882;2023-09-30T03:56:23;13.80;;;2.20;;
75209;SDS011;63796;53.136;14.882;2023-09-30T03:58:50;9.00;;;1.70;;
75209;SDS011;63796;53.136;14.882;2023-09-30T04:01:19;12.40;;;2.10;;
75209;SDS011;63796;53.136;14.882;2023-09-30T04:03:47;10.80;;;1.90;;
75209;SDS011;63796;53.136;14.882;2023-09-30T04:06:15;12.50;;;1.70;;
75209;SDS011;63796;53.136;14.882;2023-09-30T04:08:42;10.40;;;1.70;;
75209;SDS011;63796;53.136;14.882;2023-09-30T04:11:11;8.20;;;1.70;;
75209;SDS011;63796;53.136;14.882;2023-09-30T04:13:44;12.40;;;2.60;;
75209;SDS011;63796;53.136;14.882;2023-09-30T04:16:12;8.30;;;2.10;;
75209;SDS011;63796;53.136;14.882;2023-09-30T04:18:39;9.60;;;1.80;;
75209;SDS011;63796;53.136;14.882;2023-09-30T04:21:07;11.10;;;2.70;;
75209;SDS011;63796;53.136;14.882;2023-09-30T04:23:35;8.70;;;1.70;;
75209;SDS011;63796;53.136;14.882;2023-09-30T04:26:04;10.90;;;2.00;;
75209;SDS011;63796;53.136;14.882;2023-09-30T04:28:32;9.90;;;2.30;;
75209;SDS011;63796;53.136;14.882;2023-09-30T04:31:01;10.80;;;2.50;;
75209;SDS011;63796;53.136;14.882;2023-09-30T04:33:30;10.80;;;2.90;;
75209;SDS011;63796;53.136;14.882;2023-09-30T04:35:58;14.30;;;2.60;;
75209;SDS011;63796;53.136;14.882;2023-09-30T04:38:25;13.00;;;2.20;;
75209;SDS011;63796;53.136;14.882;2023-09-30T04:40:53;9.60;;;1.70;;
75209;SDS011;63796;53.136;14.882;2023-09-30T04:43:21;8.70;;;2.10;;
75209;SDS011;63796;53.136;14.882;2023-09-30T04:45:48;11.10;;;1.90;;
75209;SDS011;63796;53.136;14.882;2023-09-30T04:48:20;12.20;;;2.00;;
75209;SDS011;63796;53.136;14.882;2023-09-30T04:50:47;10.50;;;2.00;;
75209;SDS011;63796;53.136;14.882;2023-09-30T04:53:14;8.20;;;1.70;;
75209;SDS011;63796;53.136;14.882;2023-09-30T04:55:44;7.00;;;2.00;;
75209;SDS011;63796;53.136;14.882;2023-09-30T04:58:12;8.10;;;1.60;;
75209;SDS011;63796;53.136;14.882;2023-09-30T05:00:40;10.00;;;1.90;;
75209;SDS011;63796;53.136;14.882;2023-09-30T05:03:07;17.50;;;2.30;;
75209;SDS011;63796;53.136;14.882;2023-09-30T05:05:36;9.00;;;1.40;;
75209;SDS011;63796;53.136;14.882;2023-09-30T05:08:04;10.90;;;1.90;;
75209;SDS011;63796;53.136;14.882;2023-09-30T05:10:33;14.70;;;2.10;;
75209;SDS011;63796;53.136;14.882;2023-09-30T05:13:01;10.90;;;1.50;;
75209;SDS011;63796;53.136;14.882;2023-09-30T05:15:28;8.00;;;2.10;;
75209;SDS011;63796;53.136;14.882;2023-09-30T05:17:59;9.60;;;2.00;;
75209;SDS011;63796;53.136;14.882;2023-09-30T05:20:27;10.80;;;2.10;;
75209;SDS011;63796;53.136;14.882;2023-09-30T05:22:55;10.00;;;2.00;;
75209;SDS011;63796;53.136;14.882;2023-09-30T05:25:23;10.90;;;2.40;;
75209;SDS011;63796;53.136;14.882;2023-09-30T05:27:54;6.70;;;1.60;;
75209;SDS011;63796;53.136;14.882;2023-09-30T05:30:21;16.00;;;2.10;;
75209;SDS011;63796;53.136;14.882;2023-09-30T05:32:50;21.50;;;2.10;;
75209;SDS011;63796;53.136;14.882;2023-09-30T05:35:20;9.10;;;1.80;;
75209;SDS011;63796;53.136;14.882;2023-09-30T05:37:49;11.00;;;2.30;;
75209;SDS011;63796;53.136;14.882;2023-09-30T05:40:20;14.30;;;2.00;;
75209;SDS011;63796;53.136;14.882;2023-09-30T05:42:54;14.50;;;2.30;;
75209;SDS011;63796;53.136;14.882;2023-09-30T05:45:24;11.90;;;1.60;;
75209;SDS011;63796;53.136;14.882;2023-09-30T05:47:52;9.60;;;1.70;;
75209;SDS011;63796;53.136;14.882;2023-09-30T05:50:20;14.70;;;2.40;;
75209;SDS011;63796;53.136;14.882;2023-09-30T05:52:53;11.00;;;2.10;;
75209;SDS011;63796;53.136;14.882;2023-09-30T05:55:23;17.20;;;2.30;;
75209;SDS011;63796;53.136;14.882;2023-09-30T05:57:54;12.30;;;1.70;;
75209;SDS011;63796;53.136;14.882;2023-09-30T06:00:23;10.90;;;1.70;;
75209;SDS011;63796;53.136;14.882;2023-09-30T06:02:57;8.90;;;1.60;;
75209;SDS011;63796;53.136;14.882;2023-09-30T06:05:25;12.20;;;2.00;;
75209;SDS011;63796;53.136;14.882;2023-09-30T06:08:03;11.80;;;2.10;;
75209;SDS011;63796;53.136;14.882;2023-09-30T06:10:32;16.50;;;2.20;;
75209;SDS011;63796;53.136;14.882;2023-09-30T06:12:59;14.90;;;2.50;;
75209;SDS011;63796;53.136;14.882;2023-09-30T06:15:27;14.20;;;2.40;;
75209;SDS011;63796;53.136;14.882;2023-09-30T06:17:56;11.10;;;2.70;;
75209;SDS011;63796;53.136;14.882;2023-09-30T06:20:26;10.10;;;2.00;;
75209;SDS011;63796;53.136;14.882;2023-09-30T06:22:55;10.20;;;2.00;;
75209;SDS011;63796;53.136;14.882;2023-09-30T06:25:23;14.30;;;3.00;;
75209;SDS011;63796;53.136;14.882;2023-09-30T06:27:52;12.40;;;2.60;;
75209;SDS011;63796;53.136;14.882;2023-09-30T06:30:20;17.00;;;3.10;;
75209;SDS011;63796;53.136;14.882;2023-09-30T06:32:48;9.10;;;2.80;;
75209;SDS011;63796;53.136;14.882;2023-09-30T06:35:17;13.50;;;3.50;;
75209;SDS011;63796;53.136;14.882;2023-09-30T06:37:48;10.80;;;2.70;;
75209;SDS011;63796;53.136;14.882;2023-09-30T06:40:17;11.70;;;2.40;;
75209;SDS011;63796;53.136;14.882;2023-09-30T06:42:45;9.40;;;2.70;;
75209;SDS011;63796;53.136;14.882;2023-09-30T06:45:12;10.90;;;2.80;;
75209;SDS011;63796;53.136;14.882;2023-09-30T06:47:40;10.10;;;2.60;;
75209;SDS011;63796;53.136;14.882;2023-09-30T06:50:11;9.10;;;2.90;;
75209;SDS011;63796;53.136;14.882;2023-09-30T06:52:41;9.70;;;2.60;;
75209;SDS011;63796;53.136;14.882;2023-09-30T06:55:09;12.50;;;3.10;;
75209;SDS011;63796;53.136;14.882;2023-09-30T06:57:38;15.90;;;3.00;;
75209;SDS011;63796;53.136;14.882;2023-09-30T07:00:14;8.40;;;2.90;;
75209;SDS011;63796;53.136;14.882;2023-09-30T07:02:42;9.30;;;2.60;;
75209;SDS011;63796;53.136;14.882;2023-09-30T07:05:11;11.10;;;2.20;;
75209;SDS011;63796;53.136;14.882;2023-09-30T07:07:41;6.90;;;2.50;;
75209;SDS011;63796;53.136;14.882;2023-09-30T07:10:11;9.50;;;2.50;;
75209;SDS011;63796;53.136;14.882;2023-09-30T07:12:39;9.80;;;2.30;;
75209;SDS011;63796;53.136;14.882;2023-09-30T07:15:07;11.80;;;2.70;;
75209;SDS011;63796;53.136;14.882;2023-09-30T07:17:36;11.80;;;2.70;;
75209;SDS011;63796;53.136;14.882;2023-09-30T07:20:04;14.70;;;2.60;;
75209;SDS011;63796;53.136;14.882;2023-09-30T07:22:33;10.50;;;2.50;;
75209;SDS011;63796;53.136;14.882;2023-09-30T07:25:21;11.20;;;2.80;;
75209;SDS011;63796;53.136;14.882;2023-09-30T07:27:49;6.90;;;1.80;;
75209;SDS011;63796;53.136;14.882;2023-09-30T07:30:16;9.80;;;2.80;;
75209;SDS011;63796;53.136;14.882;2023-09-30T07:32:45;8.30;;;2.50;;
75209;SDS011;63796;53.136;14.882;2023-09-30T07:35:14;12.80;;;2.70;;
75209;SDS011;63796;53.136;14.882;2023-09-30T07:37:43;10.10;;;2.40;;
75209;SDS011;63796;53.136;14.882;2023-09-30T07:40:12;9.90;;;2.30;;
75209;SDS011;63796;53.136;14.882;2023-09-30T07:42:39;9.60;;;2.40;;
75209;SDS011;63796;53.136;14.882;2023-09-30T07:45:08;12.90;;;3.00;;
75209;SDS011;63796;53.136;14.882;2023-09-30T07:47:36;13.50;;;3.30;;
75209;SDS011;63796;53.136;14.882;2023-09-30T07:50:05;8.40;;;2.50;;
75209;SDS011;63796;53.136;14.882;2023-09-30T07:52:38;12.20;;;2.30;;
75209;SDS011;63796;53.136;14.882;2023-09-30T07:55:09;11.60;;;3.80;;
75209;SDS011;63796;53.136;14.882;2023-09-30T07:57:41;11.60;;;2.80;;
75209;SDS011;63796;53.136;14.882;2023-09-30T08:00:10;13.40;;;3.10;;
75209;SDS011;63796;53.136;14.882;2023-09-30T08:02:44;8.20;;;2.90;;
75209;SDS011;63796;53.136;14.882;2023-09-30T08:05:12;7.90;;;2.40;;
75209;SDS011;63796;53.136;14.882;2023-09-30T08:07:40;9.30;;;2.20;;
75209;SDS011;63796;53.136;14.882;2023-09-30T08:10:08;9.20;;;2.40;;
75209;SDS011;63796;53.136;14.882;2023-09-30T08:12:41;10.40;;;3.40;;
75209;SDS011;63796;53.136;14.882;2023-09-30T08:15:10;10.60;;;2.70;;
75209;SDS011;63796;53.136;14.882;2023-09-30T08:17:41;12.60;;;2.70;;
75209;SDS011;63796;53.136;14.882;2023-09-30T08:20:09;9.60;;;2.20;;
75209;SDS011;63796;53.136;14.882;2023-09-30T08:22:37;7.80;;;1.90;;
75209;SDS011;63796;53.136;14.882;2023-09-30T08:25:05;10.90;;;2.30;;
75209;SDS011;63796;53.136;14.882;2023-09-30T08:27:33;12.00;;;2.50;;
75209;SDS011;63796;53.136;14.882;2023-09-30T08:30:02;11.20;;;1.90;;
75209;SDS011;63796;53.136;14.882;2023-09-30T08:32:34;9.00;;;2.40;;
75209;SDS011;63796;53.136;14.882;2023-09-30T08:35:03;8.00;;;2.00;;
75209;SDS011;63796;53.136;14.882;2023-09-30T08:37:31;9.50;;;2.10;;
75209;SDS011;63796;53.136;14.882;2023-09-30T08:39:59;10.50;;;2.10;;
75209;SDS011;63796;53.136;14.882;2023-09-30T08:42:27;11.50;;;2.50;;
75209;SDS011;63796;53.136;14.882;2023-09-30T08:45:03;12.80;;;3.50;;
75209;SDS011;63796;53.136;14.882;2023-09-30T08:47:34;8.10;;;2.00;;
75209;SDS011;63796;53.136;14.882;2023-09-30T08:50:03;10.90;;;2.20;;
75209;SDS011;63796;53.136;14.882;2023-09-30T08:52:38;12.30;;;2.50;;
75209;SDS011;63796;53.136;14.882;2023-09-30T08:55:11;8.00;;;2.00;;
75209;SDS011;63796;53.136;14.882;2023-09-30T08:57:41;13.10;;;3.10;;
75209;SDS011;63796;53.136;14.882;2023-09-30T09:00:11;10.30;;;2.50;;
75209;SDS011;63796;53.136;14.882;2023-09-30T09:02:39;10.90;;;2.70;;
75209;SDS011;63796;53.136;14.882;2023-09-30T09:05:07;11.30;;;2.40;;
75209;SDS011;63796;53.136;14.882;2023-09-30T09:07:35;7.00;;;2.00;;
75209;SDS011;63796;53.136;14.882;2023-09-30T09:10:07;11.90;;;2.40;;
75209;SDS011;63796;53.136;14.882;2023-09-30T09:12:36;9.80;;;2.40;;
75209;SDS011;63796;53.136;14.882;2023-09-30T09:15:07;9.40;;;2.40;;
75209;SDS011;63796;53.136;14.882;2023-09-30T09:17:42;9.20;;;2.50;;
75209;SDS011;63796;53.136;14.882;2023-09-30T09:20:16;9.70;;;2.30;;
75209;SDS011;63796;53.136;14.882;2023-09-30T09:22:49;12.50;;;2.80;;
75209;SDS011;63796;53.136;14.882;2023-09-30T09:25:18;12.00;;;2.00;;
75209;SDS011;63796;53.136;14.882;2023-09-30T09:27:45;11.30;;;2.60;;
75209;SDS011;63796;53.136;14.882;2023-09-30T09:33:00;11.90;;;2.10;;
75209;SDS011;63796;53.136;14.882;2023-09-30T09:35:29;11.10;;;2.20;;
75209;SDS011;63796;53.136;14.882;2023-09-30T09:38:03;8.10;;;2.20;;
75209;SDS011;63796;53.136;14.882;2023-09-30T09:40:38;12.10;;;2.70;;
75209;SDS011;63796;53.136;14.882;2023-09-30T09:43:09;12.20;;;3.30;;
75209;SDS011;63796;53.136;14.882;2023-09-30T09:45:37;9.60;;;2.60;;
75209;SDS011;63796;53.136;14.882;2023-09-30T09:48:05;11.50;;;2.70;;
75209;SDS011;63796;53.136;14.882;2023-09-30T09:50:35;10.50;;;2.60;;
75209;SDS011;63796;53.136;14.882;2023-09-30T09:53:07;9.20;;;2.40;;
75209;SDS011;63796;53.136;14.882;2023-09-30T09:55:36;12.20;;;2.60;;
75209;SDS011;63796;53.136;14.882;2023-09-30T09:58:06;10.70;;;2.40;;
75209;SDS011;63796;53.136;14.882;2023-09-30T10:00:35;8.60;;;2.30;;
75209;SDS011;63796;53.136;14.882;2023-09-30T10:03:04;9.40;;;2.10;;
75209;SDS011;63796;53.136;14.882;2023-09-30T10:05:32;9.00;;;2.60;;
75209;SDS011;63796;53.136;14.882;2023-09-30T10:08:10;13.50;;;2.90;;
75209;SDS011;63796;53.136;14.882;2023-09-30T10:10:38;14.00;;;2.70;;
75209;SDS011;63796;53.136;14.882;2023-09-30T10:13:06;11.50;;;2.60;;
75209;SDS011;63796;53.136;14.882;2023-09-30T10:15:35;8.50;;;2.40;;
75209;SDS011;63796;53.136;14.882;2023-09-30T10:18:11;12.00;;;2.70;;
75209;SDS011;63796;53.136;14.882;2023-09-30T10:20:43;10.20;;;2.60;;
75209;SDS011;63796;53.136;14.882;2023-09-30T10:23:29;10.70;;;2.70;;
75209;SDS011;63796;53.136;14.882;2023-09-30T10:28:43;10.80;;;3.90;;
75209;SDS011;63796;53.136;14.882;2023-09-30T10:31:19;9.50;;;4.30;;
75209;SDS011;63796;53.136;14.882;2023-09-30T10:36:38;9.60;;;3.90;;
75209;SDS011;63796;53.136;14.882;2023-09-30T10:39:14;9.40;;;4.50;;
75209;SDS011;63796;53.136;14.882;2023-09-30T10:46:58;10.50;;;3.40;;
75209;SDS011;63796;53.136;14.882;2023-09-30T10:51:54;9.20;;;2.80;;
75209;SDS011;63796;53.136;14.882;2023-09-30T10:54:23;5.50;;;2.20;;
75209;SDS011;63796;53.136;14.882;2023-09-30T10:56:52;8.10;;;2.40;;
75209;SDS011;63796;53.136;14.882;2023-09-30T10:59:23;8.60;;;2.40;;
75209;SDS011;63796;53.136;14.882;2023-09-30T11:01:52;7.10;;;2.50;;
75209;SDS011;63796;53.136;14.882;2023-09-30T11:04:20;9.60;;;4.30;;
75209;SDS011;63796;53.136;14.882;2023-09-30T11:06:48;8.10;;;3.40;;
75209;SDS011;63796;53.136;14.882;2023-09-30T11:09:22;7.50;;;2.70;;
75209;SDS011;63796;53.136;14.882;2023-09-30T11:11:51;9.30;;;2.30;;
75209;SDS011;63796;53.136;14.882;2023-09-30T11:17:00;6.90;;;2.30;;
75209;SDS011;63796;53.136;14.882;2023-09-30T11:19:47;6.60;;;2.70;;
75209;SDS011;63796;53.136;14.882;2023-09-30T11:22:16;9.30;;;2.80;;
75209;SDS011;63796;53.136;14.882;2023-09-30T11:24:43;6.80;;;2.00;;
75209;SDS011;63796;53.136;14.882;2023-09-30T11:27:22;11.20;;;3.50;;
75209;SDS011;63796;53.136;14.882;2023-09-30T11:29:52;14.00;;;5.80;;
75209;SDS011;63796;53.136;14.882;2023-09-30T11:32:26;12.70;;;7.80;;
75209;SDS011;63796;53.136;14.882;2023-09-30T11:34:54;17.50;;;4.90;;
75209;SDS011;63796;53.136;14.882;2023-09-30T11:37:22;10.40;;;2.30;;
75209;SDS011;63796;53.136;14.882;2023-09-30T11:39:49;8.90;;;2.10;;
75209;SDS011;63796;53.136;14.882;2023-09-30T11:42:18;9.20;;;2.60;;
75209;SDS011;63796;53.136;14.882;2023-09-30T11:44:47;11.60;;;2.90;;
75209;SDS011;63796;53.136;14.882;2023-09-30T11:47:14;11.80;;;2.10;;
75209;SDS011;63796;53.136;14.882;2023-09-30T11:49:43;8.40;;;2.00;;
75209;SDS011;63796;53.136;14.882;2023-09-30T11:52:15;22.00;;;2.80;;
75209;SDS011;63796;53.136;14.882;2023-09-30T11:54:46;8.90;;;2.00;;
75209;SDS011;63796;53.136;14.882;2023-09-30T11:57:15;6.90;;;2.10;;
75209;SDS011;63796;53.136;14.882;2023-09-30T11:59:44;5.80;;;1.80;;
75209;SDS011;63796;53.136;14.882;2023-09-30T12:02:13;4.80;;;1.80;;
75209;SDS011;63796;53.136;14.882;2023-09-30T12:04:43;9.20;;;2.20;;
75209;SDS011;63796;53.136;14.882;2023-09-30T12:07:12;13.00;;;7.30;;
75209;SDS011;63796;53.136;14.882;2023-09-30T12:09:40;15.00;;;8.20;;
75209;SDS011;63796;53.136;14.882;2023-09-30T12:12:08;8.90;;;2.20;;
75209;SDS011;63796;53.136;14.882;2023-09-30T12:14:41;8.20;;;2.30;;
75209;SDS011;63796;53.136;14.882;2023-09-30T12:17:08;6.80;;;2.20;;
75209;SDS011;63796;53.136;14.882;2023-09-30T12:19:40;6.00;;;2.20;;
75209;SDS011;63796;53.136;14.882;2023-09-30T12:22:10;10.50;;;3.00;;
75209;SDS011;63796;53.136;14.882;2023-09-30T12:24:38;7.30;;;2.10;;
75209;SDS011;63796;53.136;14.882;2023-09-30T12:27:07;10.10;;;2.70;;
75209;SDS011;63796;53.136;14.882;2023-09-30T12:29:34;8.90;;;2.20;;
75209;SDS011;63796;53.136;14.882;2023-09-30T12:32:02;8.80;;;2.40;;
75209;SDS011;63796;53.136;14.882;2023-09-30T12:34:31;8.70;;;2.30;;
75209;SDS011;63796;53.136;14.882;2023-09-30T12:37:00;7.20;;;2.20;;
75209;SDS011;63796;53.136;14.882;2023-09-30T12:39:27;9.00;;;2.60;;
75209;SDS011;63796;53.136;14.882;2023-09-30T12:41:57;9.60;;;2.40;;
75209;SDS011;63796;53.136;14.882;2023-09-30T12:44:25;7.40;;;2.20;;
75209;SDS011;63796;53.136;14.882;2023-09-30T12:46:52;14.20;;;5.60;;
75209;SDS011;63796;53.136;14.882;2023-09-30T12:49:20;10.80;;;3.40;;
75209;SDS011;63796;53.136;14.882;2023-09-30T12:51:47;10.90;;;3.40;;
75209;SDS011;63796;53.136;14.882;2023-09-30T12:54:15;15.00;;;3.20;;
75209;SDS011;63796;53.136;14.882;2023-09-30T12:56:45;12.10;;;3.50;;
75209;SDS011;63796;53.136;14.882;2023-09-30T12:59:14;7.40;;;2.80;;
75209;SDS011;63796;53.136;14.882;2023-09-30T13:01:42;9.30;;;2.60;;
75209;SDS011;63796;53.136;14.882;2023-09-30T13:04:09;5.30;;;2.10;;
75209;SDS011;63796;53.136;14.882;2023-09-30T13:06:38;9.50;;;2.30;;
75209;SDS011;63796;53.136;14.882;2023-09-30T13:09:06;10.70;;;3.50;;
75209;SDS011;63796;53.136;14.882;2023-09-30T13:11:35;6.40;;;1.90;;
75209;SDS011;63796;53.136;14.882;2023-09-30T13:14:04;8.60;;;2.30;;
75209;SDS011;63796;53.136;14.882;2023-09-30T13:16:32;4.90;;;1.90;;
75209;SDS011;63796;53.136;14.882;2023-09-30T13:19:00;8.50;;;2.00;;
75209;SDS011;63796;53.136;14.882;2023-09-30T13:21:29;8.00;;;3.10;;
75209;SDS011;63796;53.136;14.882;2023-09-30T13:23:57;9.80;;;2.90;;
75209;SDS011;63796;53.136;14.882;2023-09-30T13:26:24;10.50;;;2.70;;
75209;SDS011;63796;53.136;14.882;2023-09-30T13:28:52;10.00;;;2.80;;
75209;SDS011;63796;53.136;14.882;2023-09-30T13:31:20;6.10;;;1.80;;
75209;SDS011;63796;53.136;14.882;2023-09-30T13:33:49;8.30;;;2.80;;
75209;SDS011;63796;53.136;14.882;2023-09-30T13:36:17;9.80;;;2.30;;
75209;SDS011;63796;53.136;14.882;2023-09-30T13:38:44;6.20;;;2.00;;
75209;SDS011;63796;53.136;14.882;2023-09-30T13:41:13;5.10;;;1.90;;
75209;SDS011;63796;53.136;14.882;2023-09-30T13:43:40;3.90;;;1.30;;
75209;SDS011;63796;53.136;14.882;2023-09-30T13:46:08;7.90;;;2.20;;
75209;SDS011;63796;53.136;14.882;2023-09-30T13:48:36;7.00;;;1.90;;
75209;SDS011;63796;53.136;14.882;2023-09-30T13:51:10;5.10;;;2.10;;
75209;SDS011;63796;53.136;14.882;2023-09-30T13:53:37;7.70;;;2.20;;
75209;SDS011;63796;53.136;14.882;2023-09-30T13:56:06;8.10;;;1.80;;
75209;SDS011;63796;53.136;14.882;2023-09-30T13:58:34;5.30;;;1.90;;
75209;SDS011;63796;53.136;14.882;2023-09-30T14:01:01;8.10;;;2.10;;
75209;SDS011;63796;53.136;14.882;2023-09-30T14:03:29;6.10;;;1.90;;
75209;SDS011;63796;53.136;14.882;2023-09-30T14:05:57;7.10;;;1.30;;
75209;SDS011;63796;53.136;14.882;2023-09-30T14:08:25;4.70;;;1.70;;
75209;SDS011;63796;53.136;14.882;2023-09-30T14:10:52;6.60;;;2.10;;
75209;SDS011;63796;53.136;14.882;2023-09-30T14:13:20;7.80;;;1.80;;
75209;SDS011;63796;53.136;14.882;2023-09-30T14:15:47;7.30;;;2.60;;
75209;SDS011;63796;53.136;14.882;2023-09-30T14:18:15;8.70;;;2.40;;
75209;SDS011;63796;53.136;14.882;2023-09-30T14:20:43;4.50;;;1.70;;
75209;SDS011;63796;53.136;14.882;2023-09-30T14:23:10;9.20;;;3.40;;
75209;SDS011;63796;53.136;14.882;2023-09-30T14:25:38;6.90;;;2.30;;
75209;SDS011;63796;53.136;14.882;2023-09-30T14:28:06;6.90;;;2.40;;
75209;SDS011;63796;53.136;14.882;2023-09-30T14:30:34;10.00;;;3.20;;
75209;SDS011;63796;53.136;14.882;2023-09-30T14:33:02;6.60;;;2.00;;
75209;SDS011;63796;53.136;14.882;2023-09-30T14:35:33;5.90;;;2.10;;
75209;SDS011;63796;53.136;14.882;2023-09-30T14:38:04;14.20;;;5.50;;
75209;SDS011;63796;53.136;14.882;2023-09-30T14:40:36;10.80;;;4.90;;
75209;SDS011;63796;53.136;14.882;2023-09-30T14:43:07;8.70;;;2.90;;
75209;SDS011;63796;53.136;14.882;2023-09-30T14:45:39;5.40;;;1.50;;
75209;SDS011;63796;53.136;14.882;2023-09-30T14:48:10;8.60;;;2.00;;
75209;SDS011;63796;53.136;14.882;2023-09-30T14:50:37;8.10;;;2.30;;
75209;SDS011;63796;53.136;14.882;2023-09-30T14:53:05;5.10;;;1.60;;
75209;SDS011;63796;53.136;14.882;2023-09-30T14:55:32;6.60;;;1.80;;
75209;SDS011;63796;53.136;14.882;2023-09-30T14:58:00;9.70;;;4.00;;